sensor_id;sensor_type;location;lat;lon;timestamp;P1;durP1;ratioP1;P2;durP2;ratioP2
38609;SDS011;24367;51.640;9.566;2023-07-31T00:00:59;3.85;;;1.00;;
38609;SDS011;24367;51.640;9.566;2023-07-31T00:03:26;3.22;;;1.33;;
38609;SDS011;24367;51.640;9.566;2023-07-31T00:05:52;2.75;;;1.02;;
38609;SDS011;24367;51.640;9.566;2023-07-31T00:08:19;2.28;;;1.00;;
38609;SDS011;24367;51.640;9.566;2023-07-31T00:10:45;2.67;;;1.17;;
38609;SDS011;24367;51.640;9.566;2023-07-31T00:13:13;2.22;;;1.10;;
38609;SDS011;24367;51.640;9.566;2023-07-31T00:15:39;2.30;;;1.33;;
38609;SDS011;24367;51.640;9.566;2023-07-31T00:18:06;2.38;;;1.08;;
38609;SDS011;24367;51.640;9.566;2023-07-31T00:20:32;1.85;;;0.82;;
38609;SDS011;24367;51.640;9.566;2023-07-31T00:22:59;2.03;;;0.90;;
38609;SDS011;24367;51.640;9.566;2023-07-31T00:25:25;2.90;;;1.10;;
38609;SDS011;24367;51.640;9.566;2023-07-31T00:27:52;3.17;;;1.15;;
38609;SDS011;24367;51.640;9.566;2023-07-31T00:30:20;2.97;;;1.15;;
38609;SDS011;24367;51.640;9.566;2023-07-31T00:32:47;2.47;;;1.00;;
38609;SDS011;24367;51.640;9.566;2023-07-31T00:35:14;1.80;;;0.90;;
38609;SDS011;24367;51.640;9.566;2023-07-31T00:37:40;2.72;;;1.02;;
38609;SDS011;24367;51.640;9.566;2023-07-31T00:40:07;2.90;;;1.13;;
38609;SDS011;24367;51.640;9.566;2023-07-31T00:42:34;1.67;;;0.90;;
38609;SDS011;24367;51.640;9.566;2023-07-31T00:45:00;2.20;;;1.13;;
38609;SDS011;24367;51.640;9.566;2023-07-31T00:47:30;2.17;;;1.10;;
38609;SDS011;24367;51.640;9.566;2023-07-31T00:49:57;2.00;;;1.10;;
38609;SDS011;24367;51.640;9.566;2023-07-31T00:52:24;3.08;;;1.00;;
38609;SDS011;24367;51.640;9.566;2023-07-31T00:54:50;2.42;;;1.40;;
38609;SDS011;24367;51.640;9.566;2023-07-31T00:57:17;3.75;;;1.25;;
38609;SDS011;24367;51.640;9.566;2023-07-31T00:59:43;2.67;;;1.10;;
38609;SDS011;24367;51.640;9.566;2023-07-31T01:02:11;3.05;;;1.30;;
38609;SDS011;24367;51.640;9.566;2023-07-31T01:04:39;2.83;;;1.10;;
38609;SDS011;24367;51.640;9.566;2023-07-31T01:07:09;1.98;;;0.98;;
38609;SDS011;24367;51.640;9.566;2023-07-31T01:09:40;2.45;;;1.15;;
38609;SDS011;24367;51.640;9.566;2023-07-31T01:12:12;4.35;;;1.25;;
38609;SDS011;24367;51.640;9.566;2023-07-31T01:14:40;2.65;;;1.05;;
38609;SDS011;24367;51.640;9.566;2023-07-31T01:17:07;3.92;;;1.42;;
38609;SDS011;24367;51.640;9.566;2023-07-31T01:19:33;2.65;;;1.00;;
38609;SDS011;24367;51.640;9.566;2023-07-31T01:22:08;4.05;;;1.10;;
38609;SDS011;24367;51.640;9.566;2023-07-31T01:24:43;2.22;;;1.00;;
38609;SDS011;24367;51.640;9.566;2023-07-31T01:27:23;2.80;;;1.13;;
38609;SDS011;24367;51.640;9.566;2023-07-31T01:29:53;2.38;;;1.10;;
38609;SDS011;24367;51.640;9.566;2023-07-31T01:32:22;2.85;;;1.13;;
38609;SDS011;24367;51.640;9.566;2023-07-31T01:34:50;2.22;;;1.08;;
38609;SDS011;24367;51.640;9.566;2023-07-31T01:37:17;1.83;;;1.00;;
38609;SDS011;24367;51.640;9.566;2023-07-31T01:39:43;2.33;;;0.95;;
38609;SDS011;24367;51.640;9.566;2023-07-31T01:42:10;2.92;;;1.23;;
38609;SDS011;24367;51.640;9.566;2023-07-31T01:44:38;2.78;;;1.13;;
38609;SDS011;24367;51.640;9.566;2023-07-31T01:47:05;2.13;;;0.90;;
38609;SDS011;24367;51.640;9.566;2023-07-31T01:49:32;2.70;;;1.00;;
38609;SDS011;24367;51.640;9.566;2023-07-31T01:51:59;2.67;;;1.00;;
38609;SDS011;24367;51.640;9.566;2023-07-31T01:54:25;1.42;;;0.90;;
38609;SDS011;24367;51.640;9.566;2023-07-31T01:56:52;2.63;;;1.13;;
38609;SDS011;24367;51.640;9.566;2023-07-31T01:59:18;2.88;;;1.08;;
38609;SDS011;24367;51.640;9.566;2023-07-31T02:01:46;2.03;;;0.70;;
38609;SDS011;24367;51.640;9.566;2023-07-31T02:04:12;2.05;;;0.90;;
38609;SDS011;24367;51.640;9.566;2023-07-31T02:06:39;2.72;;;1.15;;
38609;SDS011;24367;51.640;9.566;2023-07-31T02:09:05;1.73;;;0.98;;
38609;SDS011;24367;51.640;9.566;2023-07-31T02:11:32;1.83;;;1.00;;
38609;SDS011;24367;51.640;9.566;2023-07-31T02:13:58;4.28;;;1.33;;
38609;SDS011;24367;51.640;9.566;2023-07-31T02:16:25;1.85;;;0.82;;
38609;SDS011;24367;51.640;9.566;2023-07-31T02:18:53;2.38;;;1.33;;
38609;SDS011;24367;51.640;9.566;2023-07-31T02:21:19;1.92;;;1.02;;
38609;SDS011;24367;51.640;9.566;2023-07-31T02:23:45;2.70;;;1.00;;
38609;SDS011;24367;51.640;9.566;2023-07-31T02:26:12;1.77;;;0.82;;
38609;SDS011;24367;51.640;9.566;2023-07-31T02:28:39;2.40;;;1.08;;
38609;SDS011;24367;51.640;9.566;2023-07-31T02:31:07;1.23;;;0.88;;
38609;SDS011;24367;51.640;9.566;2023-07-31T02:33:34;2.42;;;1.00;;
38609;SDS011;24367;51.640;9.566;2023-07-31T02:36:02;1.60;;;0.80;;
38609;SDS011;24367;51.640;9.566;2023-07-31T02:38:28;1.67;;;0.90;;
38609;SDS011;24367;51.640;9.566;2023-07-31T02:40:55;2.22;;;1.00;;
38609;SDS011;24367;51.640;9.566;2023-07-31T02:43:21;2.67;;;1.35;;
38609;SDS011;24367;51.640;9.566;2023-07-31T02:45:50;1.67;;;0.90;;
38609;SDS011;24367;51.640;9.566;2023-07-31T02:48:17;1.95;;;1.10;;
38609;SDS011;24367;51.640;9.566;2023-07-31T02:50:43;2.28;;;1.20;;
38609;SDS011;24367;51.640;9.566;2023-07-31T02:53:12;2.30;;;1.00;;
38609;SDS011;24367;51.640;9.566;2023-07-31T02:55:38;1.92;;;1.13;;
38609;SDS011;24367;51.640;9.566;2023-07-31T02:58:05;2.95;;;1.25;;
38609;SDS011;24367;51.640;9.566;2023-07-31T03:00:31;2.63;;;1.08;;
38609;SDS011;24367;51.640;9.566;2023-07-31T03:02:58;2.58;;;1.00;;
38609;SDS011;24367;51.640;9.566;2023-07-31T03:05:24;3.92;;;1.20;;
38609;SDS011;24367;51.640;9.566;2023-07-31T03:07:51;2.05;;;1.15;;
38609;SDS011;24367;51.640;9.566;2023-07-31T03:10:18;2.67;;;1.00;;
38609;SDS011;24367;51.640;9.566;2023-07-31T03:12:46;3.05;;;1.15;;
38609;SDS011;24367;51.640;9.566;2023-07-31T03:15:13;2.28;;;0.93;;
38609;SDS011;24367;51.640;9.566;2023-07-31T03:17:39;3.42;;;1.33;;
38609;SDS011;24367;51.640;9.566;2023-07-31T03:20:06;1.92;;;0.90;;
38609;SDS011;24367;51.640;9.566;2023-07-31T03:22:33;2.15;;;1.15;;
38609;SDS011;24367;51.640;9.566;2023-07-31T03:25:00;1.55;;;1.08;;
38609;SDS011;24367;51.640;9.566;2023-07-31T03:27:28;1.88;;;1.20;;
38609;SDS011;24367;51.640;9.566;2023-07-31T03:29:54;2.75;;;1.30;;
38609;SDS011;24367;51.640;9.566;2023-07-31T03:32:20;2.88;;;1.10;;
38609;SDS011;24367;51.640;9.566;2023-07-31T03:34:47;1.58;;;1.02;;
38609;SDS011;24367;51.640;9.566;2023-07-31T03:37:14;2.28;;;1.00;;
38609;SDS011;24367;51.640;9.566;2023-07-31T03:39:40;1.73;;;1.00;;
38609;SDS011;24367;51.640;9.566;2023-07-31T03:42:07;3.70;;;1.48;;
38609;SDS011;24367;51.640;9.566;2023-07-31T03:44:35;1.77;;;1.02;;
38609;SDS011;24367;51.640;9.566;2023-07-31T03:47:04;2.17;;;1.00;;
38609;SDS011;24367;51.640;9.566;2023-07-31T03:49:31;2.22;;;1.10;;
38609;SDS011;24367;51.640;9.566;2023-07-31T03:51:57;2.30;;;1.33;;
38609;SDS011;24367;51.640;9.566;2023-07-31T03:54:24;2.67;;;1.10;;
38609;SDS011;24367;51.640;9.566;2023-07-31T03:56:50;2.42;;;1.02;;
38609;SDS011;24367;51.640;9.566;2023-07-31T03:59:16;2.50;;;1.30;;
38609;SDS011;24367;51.640;9.566;2023-07-31T04:01:44;3.80;;;1.27;;
38609;SDS011;24367;51.640;9.566;2023-07-31T04:04:11;1.80;;;1.00;;
38609;SDS011;24367;51.640;9.566;2023-07-31T04:06:37;2.85;;;1.35;;
38609;SDS011;24367;51.640;9.566;2023-07-31T04:09:04;2.67;;;1.50;;
38609;SDS011;24367;51.640;9.566;2023-07-31T04:11:30;2.80;;;1.30;;
38609;SDS011;24367;51.640;9.566;2023-07-31T04:13:56;2.47;;;1.40;;
38609;SDS011;24367;51.640;9.566;2023-07-31T04:16:23;2.63;;;1.33;;
38609;SDS011;24367;51.640;9.566;2023-07-31T04:18:51;3.25;;;1.90;;
38609;SDS011;24367;51.640;9.566;2023-07-31T04:21:17;3.33;;;1.58;;
38609;SDS011;24367;51.640;9.566;2023-07-31T04:23:44;2.83;;;1.20;;
38609;SDS011;24367;51.640;9.566;2023-07-31T04:26:10;3.95;;;1.75;;
38609;SDS011;24367;51.640;9.566;2023-07-31T04:28:37;2.28;;;1.50;;
38609;SDS011;24367;51.640;9.566;2023-07-31T04:31:03;2.75;;;1.38;;
38609;SDS011;24367;51.640;9.566;2023-07-31T04:33:30;2.97;;;1.52;;
38609;SDS011;24367;51.640;9.566;2023-07-31T04:35:58;2.67;;;1.50;;
38609;SDS011;24367;51.640;9.566;2023-07-31T04:38:25;3.45;;;1.70;;
38609;SDS011;24367;51.640;9.566;2023-07-31T04:40:51;3.03;;;1.80;;
38609;SDS011;24367;51.640;9.566;2023-07-31T04:43:18;3.03;;;1.80;;
38609;SDS011;24367;51.640;9.566;2023-07-31T04:45:45;4.05;;;1.92;;
38609;SDS011;24367;51.640;9.566;2023-07-31T04:48:12;3.65;;;2.03;;
38609;SDS011;24367;51.640;9.566;2023-07-31T04:50:39;3.42;;;1.75;;
38609;SDS011;24367;51.640;9.566;2023-07-31T04:53:07;3.33;;;1.88;;
38609;SDS011;24367;51.640;9.566;2023-07-31T04:55:33;2.70;;;1.77;;
38609;SDS011;24367;51.640;9.566;2023-07-31T04:58:00;3.17;;;2.20;;
38609;SDS011;24367;51.640;9.566;2023-07-31T05:00:26;4.90;;;2.03;;
38609;SDS011;24367;51.640;9.566;2023-07-31T05:02:53;5.13;;;2.00;;
38609;SDS011;24367;51.640;9.566;2023-07-31T05:05:19;3.58;;;1.90;;
38609;SDS011;24367;51.640;9.566;2023-07-31T05:07:45;3.63;;;2.05;;
38609;SDS011;24367;51.640;9.566;2023-07-31T05:10:13;3.35;;;1.98;;
38609;SDS011;24367;51.640;9.566;2023-07-31T05:12:40;4.03;;;2.10;;
38609;SDS011;24367;51.640;9.566;2023-07-31T05:15:07;3.65;;;2.03;;
38609;SDS011;24367;51.640;9.566;2023-07-31T05:17:34;3.85;;;2.05;;
38609;SDS011;24367;51.640;9.566;2023-07-31T05:20:01;4.70;;;2.35;;
38609;SDS011;24367;51.640;9.566;2023-07-31T05:22:27;3.70;;;1.98;;
38609;SDS011;24367;51.640;9.566;2023-07-31T05:24:54;4.97;;;2.10;;
38609;SDS011;24367;51.640;9.566;2023-07-31T05:27:21;3.28;;;1.77;;
38609;SDS011;24367;51.640;9.566;2023-07-31T05:29:48;3.60;;;2.38;;
38609;SDS011;24367;51.640;9.566;2023-07-31T05:32:14;3.40;;;2.38;;
38609;SDS011;24367;51.640;9.566;2023-07-31T05:34:41;3.72;;;2.38;;
38609;SDS011;24367;51.640;9.566;2023-07-31T05:37:10;3.22;;;2.00;;
38609;SDS011;24367;51.640;9.566;2023-07-31T05:39:36;4.57;;;2.38;;
38609;SDS011;24367;51.640;9.566;2023-07-31T05:42:03;4.78;;;2.33;;
38609;SDS011;24367;51.640;9.566;2023-07-31T05:44:31;3.83;;;2.20;;
38609;SDS011;24367;51.640;9.566;2023-07-31T05:46:58;8.50;;;2.90;;
38609;SDS011;24367;51.640;9.566;2023-07-31T05:49:24;4.72;;;2.03;;
38609;SDS011;24367;51.640;9.566;2023-07-31T05:51:51;4.40;;;2.15;;
38609;SDS011;24367;51.640;9.566;2023-07-31T05:54:17;3.33;;;2.13;;
38609;SDS011;24367;51.640;9.566;2023-07-31T05:56:44;3.67;;;2.00;;
38609;SDS011;24367;51.640;9.566;2023-07-31T05:59:12;4.47;;;2.40;;
38609;SDS011;24367;51.640;9.566;2023-07-31T06:01:40;4.60;;;2.33;;
38609;SDS011;24367;51.640;9.566;2023-07-31T06:04:06;3.65;;;1.90;;
38609;SDS011;24367;51.640;9.566;2023-07-31T06:06:33;8.90;;;2.00;;
38609;SDS011;24367;51.640;9.566;2023-07-31T06:08:59;3.38;;;2.15;;
38609;SDS011;24367;51.640;9.566;2023-07-31T06:11:26;4.72;;;2.42;;
38609;SDS011;24367;51.640;9.566;2023-07-31T06:13:53;5.05;;;2.22;;
38609;SDS011;24367;51.640;9.566;2023-07-31T06:16:19;4.45;;;1.98;;
38609;SDS011;24367;51.640;9.566;2023-07-31T06:18:48;4.32;;;2.42;;
38609;SDS011;24367;51.640;9.566;2023-07-31T06:21:14;3.58;;;2.03;;
38609;SDS011;24367;51.640;9.566;2023-07-31T06:23:41;3.60;;;1.90;;
38609;SDS011;24367;51.640;9.566;2023-07-31T06:26:07;3.78;;;2.13;;
38609;SDS011;24367;51.640;9.566;2023-07-31T06:28:34;3.53;;;1.92;;
38609;SDS011;24367;51.640;9.566;2023-07-31T06:31:00;4.43;;;2.28;;
38609;SDS011;24367;51.640;9.566;2023-07-31T06:33:27;4.47;;;2.28;;
38609;SDS011;24367;51.640;9.566;2023-07-31T06:35:55;3.35;;;1.83;;
38609;SDS011;24367;51.640;9.566;2023-07-31T06:38:22;3.90;;;2.00;;
38609;SDS011;24367;51.640;9.566;2023-07-31T06:40:50;3.67;;;2.00;;
38609;SDS011;24367;51.640;9.566;2023-07-31T06:43:17;3.33;;;2.08;;
38609;SDS011;24367;51.640;9.566;2023-07-31T06:45:44;3.45;;;2.10;;
38609;SDS011;24367;51.640;9.566;2023-07-31T06:48:10;3.55;;;1.90;;
38609;SDS011;24367;51.640;9.566;2023-07-31T06:50:37;3.50;;;1.88;;
38609;SDS011;24367;51.640;9.566;2023-07-31T06:53:05;5.70;;;2.20;;
38609;SDS011;24367;51.640;9.566;2023-07-31T06:55:31;5.90;;;2.03;;
38609;SDS011;24367;51.640;9.566;2023-07-31T06:57:58;3.97;;;2.15;;
38609;SDS011;24367;51.640;9.566;2023-07-31T07:00:24;3.90;;;2.20;;
38609;SDS011;24367;51.640;9.566;2023-07-31T07:02:51;4.50;;;2.10;;
38609;SDS011;24367;51.640;9.566;2023-07-31T07:05:17;5.85;;;2.53;;
38609;SDS011;24367;51.640;9.566;2023-07-31T07:07:44;12.73;;;2.85;;
38609;SDS011;24367;51.640;9.566;2023-07-31T07:10:12;7.45;;;2.35;;
38609;SDS011;24367;51.640;9.566;2023-07-31T07:12:38;6.85;;;2.30;;
38609;SDS011;24367;51.640;9.566;2023-07-31T07:15:05;3.45;;;2.20;;
38609;SDS011;24367;51.640;9.566;2023-07-31T07:17:32;5.50;;;2.50;;
38609;SDS011;24367;51.640;9.566;2023-07-31T07:19:59;5.63;;;2.63;;
38609;SDS011;24367;51.640;9.566;2023-07-31T07:22:25;7.43;;;2.67;;
38609;SDS011;24367;51.640;9.566;2023-07-31T07:24:53;4.70;;;2.75;;
38609;SDS011;24367;51.640;9.566;2023-07-31T07:27:20;5.15;;;2.72;;
38609;SDS011;24367;51.640;9.566;2023-07-31T07:29:49;7.75;;;3.00;;
38609;SDS011;24367;51.640;9.566;2023-07-31T07:32:16;6.13;;;3.30;;
38609;SDS011;24367;51.640;9.566;2023-07-31T07:34:43;4.68;;;3.00;;
38609;SDS011;24367;51.640;9.566;2023-07-31T07:37:10;6.47;;;2.95;;
38609;SDS011;24367;51.640;9.566;2023-07-31T07:39:36;4.30;;;2.53;;
38609;SDS011;24367;51.640;9.566;2023-07-31T07:42:03;4.65;;;2.63;;
38609;SDS011;24367;51.640;9.566;2023-07-31T07:44:31;4.45;;;2.42;;
38609;SDS011;24367;51.640;9.566;2023-07-31T07:46:57;5.43;;;2.47;;
38609;SDS011;24367;51.640;9.566;2023-07-31T07:49:24;5.15;;;2.72;;
38609;SDS011;24367;51.640;9.566;2023-07-31T07:51:50;5.00;;;2.95;;
38609;SDS011;24367;51.640;9.566;2023-07-31T07:54:17;5.22;;;3.03;;
38609;SDS011;24367;51.640;9.566;2023-07-31T07:56:44;16.58;;;3.20;;
38609;SDS011;24367;51.640;9.566;2023-07-31T07:59:10;6.72;;;2.90;;
38609;SDS011;24367;51.640;9.566;2023-07-31T08:01:38;6.32;;;2.53;;
38609;SDS011;24367;51.640;9.566;2023-07-31T08:04:04;6.63;;;2.70;;
38609;SDS011;24367;51.640;9.566;2023-07-31T08:06:31;4.03;;;2.40;;
38609;SDS011;24367;51.640;9.566;2023-07-31T08:08:59;9.35;;;3.25;;
38609;SDS011;24367;51.640;9.566;2023-07-31T08:11:30;6.57;;;3.10;;
38609;SDS011;24367;51.640;9.566;2023-07-31T08:13:56;10.32;;;3.05;;
38609;SDS011;24367;51.640;9.566;2023-07-31T08:16:23;7.13;;;2.72;;
38609;SDS011;24367;51.640;9.566;2023-07-31T08:18:51;6.13;;;2.78;;
38609;SDS011;24367;51.640;9.566;2023-07-31T08:21:17;8.60;;;3.20;;
38609;SDS011;24367;51.640;9.566;2023-07-31T08:23:44;12.85;;;3.47;;
38609;SDS011;24367;51.640;9.566;2023-07-31T08:26:14;14.13;;;3.22;;
38609;SDS011;24367;51.640;9.566;2023-07-31T08:28:40;6.22;;;2.97;;
38609;SDS011;24367;51.640;9.566;2023-07-31T08:31:07;7.40;;;2.60;;
38609;SDS011;24367;51.640;9.566;2023-07-31T08:33:33;6.82;;;2.88;;
38609;SDS011;24367;51.640;9.566;2023-07-31T08:36:01;10.30;;;3.05;;
38609;SDS011;24367;51.640;9.566;2023-07-31T08:38:28;6.85;;;2.95;;
38609;SDS011;24367;51.640;9.566;2023-07-31T08:40:56;5.45;;;2.70;;
38609;SDS011;24367;51.640;9.566;2023-07-31T08:43:22;6.00;;;2.60;;
38609;SDS011;24367;51.640;9.566;2023-07-31T08:45:51;5.93;;;3.00;;
38609;SDS011;24367;51.640;9.566;2023-07-31T08:48:18;6.15;;;2.90;;
38609;SDS011;24367;51.640;9.566;2023-07-31T08:50:45;6.32;;;3.22;;
38609;SDS011;24367;51.640;9.566;2023-07-31T08:53:13;7.90;;;2.67;;
38609;SDS011;24367;51.640;9.566;2023-07-31T08:55:39;6.18;;;2.53;;
38609;SDS011;24367;51.640;9.566;2023-07-31T08:58:06;7.68;;;2.78;;
38609;SDS011;24367;51.640;9.566;2023-07-31T09:00:33;5.45;;;2.83;;
38609;SDS011;24367;51.640;9.566;2023-07-31T09:03:00;7.80;;;2.80;;
38609;SDS011;24367;51.640;9.566;2023-07-31T09:05:29;5.80;;;2.65;;
38609;SDS011;24367;51.640;9.566;2023-07-31T09:07:56;3.72;;;2.28;;
38609;SDS011;24367;51.640;9.566;2023-07-31T09:10:24;5.75;;;2.35;;
38609;SDS011;24367;51.640;9.566;2023-07-31T09:12:51;5.07;;;2.70;;
38609;SDS011;24367;51.640;9.566;2023-07-31T09:15:18;4.20;;;2.80;;
38609;SDS011;24367;51.640;9.566;2023-07-31T09:17:45;6.53;;;2.72;;
38609;SDS011;24367;51.640;9.566;2023-07-31T09:20:12;3.95;;;2.30;;
38609;SDS011;24367;51.640;9.566;2023-07-31T09:22:39;5.38;;;2.85;;
38609;SDS011;24367;51.640;9.566;2023-07-31T09:25:14;5.88;;;2.58;;
38609;SDS011;24367;51.640;9.566;2023-07-31T09:27:46;6.03;;;2.75;;
38609;SDS011;24367;51.640;9.566;2023-07-31T09:30:14;5.82;;;2.35;;
38609;SDS011;24367;51.640;9.566;2023-07-31T09:32:40;5.28;;;2.63;;
38609;SDS011;24367;51.640;9.566;2023-07-31T09:35:13;5.28;;;2.67;;
38609;SDS011;24367;51.640;9.566;2023-07-31T09:37:40;4.22;;;2.60;;
38609;SDS011;24367;51.640;9.566;2023-07-31T09:40:06;3.80;;;2.13;;
38609;SDS011;24367;51.640;9.566;2023-07-31T09:42:33;5.93;;;2.83;;
38609;SDS011;24367;51.640;9.566;2023-07-31T09:45:08;5.45;;;2.50;;
38609;SDS011;24367;51.640;9.566;2023-07-31T09:47:35;5.68;;;2.80;;
38609;SDS011;24367;51.640;9.566;2023-07-31T09:50:04;5.28;;;2.50;;
38609;SDS011;24367;51.640;9.566;2023-07-31T09:52:33;4.75;;;2.25;;
38609;SDS011;24367;51.640;9.566;2023-07-31T09:55:00;3.70;;;2.28;;
38609;SDS011;24367;51.640;9.566;2023-07-31T09:57:26;3.83;;;2.20;;
38609;SDS011;24367;51.640;9.566;2023-07-31T09:59:53;3.70;;;2.60;;
38609;SDS011;24367;51.640;9.566;2023-07-31T10:02:22;4.75;;;2.13;;
38609;SDS011;24367;51.640;9.566;2023-07-31T10:04:49;4.65;;;2.63;;
38609;SDS011;24367;51.640;9.566;2023-07-31T10:07:16;4.00;;;1.88;;
38609;SDS011;24367;51.640;9.566;2023-07-31T10:09:43;6.03;;;2.80;;
38609;SDS011;24367;51.640;9.566;2023-07-31T10:12:11;4.68;;;2.50;;
38609;SDS011;24367;51.640;9.566;2023-07-31T10:14:38;4.63;;;2.40;;
38609;SDS011;24367;51.640;9.566;2023-07-31T10:17:05;5.43;;;2.70;;
38609;SDS011;24367;51.640;9.566;2023-07-31T10:19:34;3.38;;;2.15;;
38609;SDS011;24367;51.640;9.566;2023-07-31T10:22:01;4.85;;;2.67;;
38609;SDS011;24367;51.640;9.566;2023-07-31T10:24:29;5.05;;;2.28;;
38609;SDS011;24367;51.640;9.566;2023-07-31T10:26:56;3.50;;;2.30;;
38609;SDS011;24367;51.640;9.566;2023-07-31T10:29:24;4.25;;;2.38;;
38609;SDS011;24367;51.640;9.566;2023-07-31T10:31:51;4.65;;;2.67;;
38609;SDS011;24367;51.640;9.566;2023-07-31T10:34:18;3.92;;;2.20;;
38609;SDS011;24367;51.640;9.566;2023-07-31T10:36:46;4.35;;;2.25;;
38609;SDS011;24367;51.640;9.566;2023-07-31T10:42:09;4.15;;;2.45;;
38609;SDS011;24367;51.640;9.566;2023-07-31T10:44:36;3.25;;;2.28;;
38609;SDS011;24367;51.640;9.566;2023-07-31T10:47:02;4.25;;;2.30;;
38609;SDS011;24367;51.640;9.566;2023-07-31T10:49:29;3.45;;;2.38;;
38609;SDS011;24367;51.640;9.566;2023-07-31T10:51:58;4.30;;;2.38;;
38609;SDS011;24367;51.640;9.566;2023-07-31T10:54:24;4.38;;;2.00;;
38609;SDS011;24367;51.640;9.566;2023-07-31T10:56:51;3.28;;;2.00;;
38609;SDS011;24367;51.640;9.566;2023-07-31T10:59:18;4.72;;;2.40;;
38609;SDS011;24367;51.640;9.566;2023-07-31T11:01:51;3.30;;;2.13;;
38609;SDS011;24367;51.640;9.566;2023-07-31T11:04:21;3.88;;;2.10;;
38609;SDS011;24367;51.640;9.566;2023-07-31T11:06:55;3.90;;;2.20;;
38609;SDS011;24367;51.640;9.566;2023-07-31T11:09:24;3.10;;;2.00;;
38609;SDS011;24367;51.640;9.566;2023-07-31T11:11:50;3.60;;;2.00;;
38609;SDS011;24367;51.640;9.566;2023-07-31T11:14:17;4.32;;;2.42;;
38609;SDS011;24367;51.640;9.566;2023-07-31T11:16:43;4.25;;;2.38;;
38609;SDS011;24367;51.640;9.566;2023-07-31T11:19:10;5.03;;;1.90;;
38609;SDS011;24367;51.640;9.566;2023-07-31T11:21:36;3.30;;;1.80;;
38609;SDS011;24367;51.640;9.566;2023-07-31T11:24:03;4.22;;;2.47;;
38609;SDS011;24367;51.640;9.566;2023-07-31T11:26:31;5.93;;;2.38;;
38609;SDS011;24367;51.640;9.566;2023-07-31T11:28:58;2.78;;;1.90;;
38609;SDS011;24367;51.640;9.566;2023-07-31T11:31:25;3.58;;;2.17;;
38609;SDS011;24367;51.640;9.566;2023-07-31T11:33:58;3.35;;;2.50;;
38609;SDS011;24367;51.640;9.566;2023-07-31T11:36:30;3.58;;;2.03;;
38609;SDS011;24367;51.640;9.566;2023-07-31T11:39:04;3.30;;;2.22;;
38609;SDS011;24367;51.640;9.566;2023-07-31T11:41:32;3.80;;;2.20;;
38609;SDS011;24367;51.640;9.566;2023-07-31T11:43:59;3.30;;;2.03;;
38609;SDS011;24367;51.640;9.566;2023-07-31T11:46:25;3.03;;;2.22;;
38609;SDS011;24367;51.640;9.566;2023-07-31T11:48:52;3.45;;;1.95;;
38609;SDS011;24367;51.640;9.566;2023-07-31T11:51:25;3.38;;;2.15;;
38609;SDS011;24367;51.640;9.566;2023-07-31T11:53:53;3.38;;;2.22;;
38609;SDS011;24367;51.640;9.566;2023-07-31T11:56:22;3.03;;;2.20;;
38609;SDS011;24367;51.640;9.566;2023-07-31T11:58:51;4.07;;;2.00;;
38609;SDS011;24367;51.640;9.566;2023-07-31T12:01:21;3.03;;;2.05;;
38609;SDS011;24367;51.640;9.566;2023-07-31T12:03:48;3.38;;;2.00;;
38609;SDS011;24367;51.640;9.566;2023-07-31T12:06:15;3.33;;;1.83;;
38609;SDS011;24367;51.640;9.566;2023-07-31T12:08:41;2.92;;;1.75;;
38609;SDS011;24367;51.640;9.566;2023-07-31T12:11:08;5.40;;;2.20;;
38609;SDS011;24367;51.640;9.566;2023-07-31T12:13:35;3.40;;;2.00;;
38609;SDS011;24367;51.640;9.566;2023-07-31T12:16:03;3.88;;;2.08;;
38609;SDS011;24367;51.640;9.566;2023-07-31T12:18:31;4.47;;;2.25;;
38609;SDS011;24367;51.640;9.566;2023-07-31T12:21:00;11.63;;;2.38;;
38609;SDS011;24367;51.640;9.566;2023-07-31T12:23:28;19.15;;;2.85;;
38609;SDS011;24367;51.640;9.566;2023-07-31T12:26:02;3.50;;;2.00;;
38609;SDS011;24367;51.640;9.566;2023-07-31T12:28:29;3.75;;;2.38;;
38609;SDS011;24367;51.640;9.566;2023-07-31T12:30:57;5.40;;;2.10;;
38609;SDS011;24367;51.640;9.566;2023-07-31T12:33:30;4.93;;;2.33;;
38609;SDS011;24367;51.640;9.566;2023-07-31T12:35:57;3.83;;;2.22;;
38609;SDS011;24367;51.640;9.566;2023-07-31T12:38:23;4.93;;;1.88;;
38609;SDS011;24367;51.640;9.566;2023-07-31T12:40:50;5.03;;;1.98;;
38609;SDS011;24367;51.640;9.566;2023-07-31T12:43:16;3.83;;;2.38;;
38609;SDS011;24367;51.640;9.566;2023-07-31T12:45:43;3.97;;;2.03;;
38609;SDS011;24367;51.640;9.566;2023-07-31T12:48:09;3.38;;;1.80;;
38609;SDS011;24367;51.640;9.566;2023-07-31T12:50:37;3.20;;;1.60;;
38609;SDS011;24367;51.640;9.566;2023-07-31T12:53:04;5.13;;;1.50;;
38609;SDS011;24367;51.640;9.566;2023-07-31T12:55:31;4.30;;;1.95;;
38609;SDS011;24367;51.640;9.566;2023-07-31T12:57:59;4.32;;;1.98;;
38609;SDS011;24367;51.640;9.566;2023-07-31T13:00:26;2.95;;;1.70;;
38609;SDS011;24367;51.640;9.566;2023-07-31T13:02:52;2.95;;;1.80;;
38609;SDS011;24367;51.640;9.566;2023-07-31T13:05:19;4.20;;;1.90;;
38609;SDS011;24367;51.640;9.566;2023-07-31T13:07:47;3.92;;;1.65;;
38609;SDS011;24367;51.640;9.566;2023-07-31T13:10:14;2.83;;;1.95;;
38609;SDS011;24367;51.640;9.566;2023-07-31T13:12:40;5.28;;;2.10;;
38609;SDS011;24367;51.640;9.566;2023-07-31T13:15:07;7.80;;;2.70;;
38609;SDS011;24367;51.640;9.566;2023-07-31T13:17:34;5.07;;;2.53;;
38609;SDS011;24367;51.640;9.566;2023-07-31T13:20:01;4.85;;;1.88;;
38609;SDS011;24367;51.640;9.566;2023-07-31T13:22:28;6.35;;;1.98;;
38609;SDS011;24367;51.640;9.566;2023-07-31T13:24:56;4.90;;;2.00;;
38609;SDS011;24367;51.640;9.566;2023-07-31T13:27:23;3.35;;;1.70;;
38609;SDS011;24367;51.640;9.566;2023-07-31T13:29:49;5.63;;;2.33;;
38609;SDS011;24367;51.640;9.566;2023-07-31T13:32:16;3.25;;;2.05;;
38609;SDS011;24367;51.640;9.566;2023-07-31T13:34:43;3.28;;;1.83;;
38609;SDS011;24367;51.640;9.566;2023-07-31T13:37:10;3.53;;;2.15;;
38609;SDS011;24367;51.640;9.566;2023-07-31T13:39:36;5.60;;;1.80;;
38609;SDS011;24367;51.640;9.566;2023-07-31T13:42:05;3.67;;;2.17;;
38609;SDS011;24367;51.640;9.566;2023-07-31T13:44:33;3.55;;;1.67;;
38609;SDS011;24367;51.640;9.566;2023-07-31T13:46:59;7.55;;;2.17;;
38609;SDS011;24367;51.640;9.566;2023-07-31T13:49:26;2.90;;;1.60;;
38609;SDS011;24367;51.640;9.566;2023-07-31T13:51:52;4.10;;;2.00;;
38609;SDS011;24367;51.640;9.566;2023-07-31T13:54:19;3.42;;;1.80;;
38609;SDS011;24367;51.640;9.566;2023-07-31T13:56:45;4.55;;;1.80;;
38609;SDS011;24367;51.640;9.566;2023-07-31T13:59:13;3.33;;;1.73;;
38609;SDS011;24367;51.640;9.566;2023-07-31T14:01:40;3.50;;;1.85;;
38609;SDS011;24367;51.640;9.566;2023-07-31T14:04:06;2.90;;;1.80;;
38609;SDS011;24367;51.640;9.566;2023-07-31T14:06:33;3.20;;;1.52;;
38609;SDS011;24367;51.640;9.566;2023-07-31T14:08:59;3.45;;;1.67;;
38609;SDS011;24367;51.640;9.566;2023-07-31T14:11:26;4.53;;;1.95;;
38609;SDS011;24367;51.640;9.566;2023-07-31T14:13:52;3.00;;;2.10;;
38609;SDS011;24367;51.640;9.566;2023-07-31T14:16:20;5.47;;;1.88;;
38609;SDS011;24367;51.640;9.566;2023-07-31T14:18:47;4.13;;;2.05;;
38609;SDS011;24367;51.640;9.566;2023-07-31T14:21:13;2.97;;;1.83;;
38609;SDS011;24367;51.640;9.566;2023-07-31T14:23:40;3.78;;;1.83;;
38609;SDS011;24367;51.640;9.566;2023-07-31T14:26:06;3.63;;;1.83;;
38609;SDS011;24367;51.640;9.566;2023-07-31T14:28:33;2.70;;;1.65;;
38609;SDS011;24367;51.640;9.566;2023-07-31T14:30:59;2.58;;;1.58;;
38609;SDS011;24367;51.640;9.566;2023-07-31T14:33:27;4.78;;;1.80;;
38609;SDS011;24367;51.640;9.566;2023-07-31T14:35:54;4.65;;;1.60;;
38609;SDS011;24367;51.640;9.566;2023-07-31T14:38:20;4.18;;;1.50;;
38609;SDS011;24367;51.640;9.566;2023-07-31T14:40:47;4.55;;;2.05;;
38609;SDS011;24367;51.640;9.566;2023-07-31T14:43:13;6.90;;;1.85;;
38609;SDS011;24367;51.640;9.566;2023-07-31T14:45:40;5.70;;;1.52;;
38609;SDS011;24367;51.640;9.566;2023-07-31T14:48:06;7.95;;;2.05;;
38609;SDS011;24367;51.640;9.566;2023-07-31T14:50:34;5.57;;;2.00;;